Αρχική σελίδα
METAR-TAF:

METAR-TAF

Αεροδρόμια :

Klamath Falls Airport (Kingsley Field)

Klamath Falls, Όρεγκον, Ηνωμένες Πολιτείες Αμερικής

γεωγραφικό πλάτος: 42-08-49N, γεωγραφικό μήκος: 121-43-27W, υψόμετρο: 1247 μ

Παρών καιρός

Η αναφορά έγινε 31 λεπτά πριν, στις 17:53 UTC
Άνεμος 4 kt από Β
Θερμοκρασία 4°C
Υγρασία 70%
Πίεση 1024 hPa
Ορατότητα: 16.1 χλμ
Καθαρός ουρανός
καπνός

METAR: KLMT 181753Z 36004KT 10SM FU CLR 04/M01 A3023 RMK AO2 SLP239 I6000 T00441006 10044 21083 51006

Χρόνος: 10:24 (18:24 UTC)

Πρόγνωση Καιρού

Η αναφορά έγινε 1 ώρα και 3 λεπτά πριν, στις 17:21 UTC
Η πρόγνωση ισχύει από τις 18 στις 18 UTC έως τις 19 στις 18 UTC
Άνεμος 3 kt από μεταβλητές κατευθύνσεις
Ορατότητα: 10 χλμ
Καθαρός ουρανός

TAF: KLMT 181721Z 1818/1918 VRB03KT P6SM SKC

Μετεωρολογικές αναφορές και προγνώσεις για περισσότερα από 4000 αεροδρόμια (δελτία METAR και TAF).

Οι διαθέσιμοι σταθμοί απεικονίζονται στο χάρτη με κίτρινες και κόκκινες κουκκίδες.

Μετακινήστε το ποντίκι πάνω από τις κουκκίδες για να δείτε το όνομα του σταθμού.

Στη συνέχεια, κάντε κλικ για να δείτε τις μετεωρολογικές αναφορές και τις προγνώσεις καιρού.

Για να αλλάξετε το χάρτη: κάντε κλικ στα πράσινα κουμπιά με τον μαύρο σταυρό για να ζουμάρετε, στο πράσινο κουμπί με την παύλα για να αφαιρέσετε το ζουμ ή στα πράσινα βέλη για να αντιπαραβάλλετε χάρτες.


METAR-TAF: